Time;durP1;ratioP1;P1;durP2;ratioP2;P2;SDS_P1;SDS_P2;PMS_P1;PMS_P2;Temp;Humidity;BMP_temperature;BMP_pressure;BME280_temperature;BME280_humidity;BME280_pressure;Samples;Min_cycle;Max_cycle;Signal;HPM_P1;HPM_P2
2022/12/11 00:01:14;;;;;;;15.43;6.88;;;;;;;;;;5986800;23;20086;-81
2022/12/11 00:03:39;;;;;;;15.85;7.60;;;;;;;;;;5982031;23;20011;-80
2022/12/11 00:06:10;;;;;;;13.77;6.88;;;;;;;;;;6014988;23;20475;-81
2022/12/11 00:08:37;;;;;;;11.82;6.40;;;;;;;;;;6009820;23;20011;-81
2022/12/11 00:11:03;;;;;;;13.35;6.57;;;;;;;;;;5997686;23;20016;-81
2022/12/11 00:13:32;;;;;;;13.55;7.15;;;;;;;;;;6009331;23;20401;-84
2022/12/11 00:15:57;;;;;;;12.52;6.85;;;;;;;;;;5978662;23;20020;-81
2022/12/11 00:18:23;;;;;;;13.68;7.43;;;;;;;;;;5978989;23;20017;-81
2022/12/11 00:20:48;;;;;;;15.23;7.53;;;;;;;;;;6000168;23;20087;-81
2022/12/11 00:23:14;;;;;;;14.68;7.47;;;;;;;;;;6005279;23;20090;-80
2022/12/11 00:25:46;;;;;;;16.17;7.68;;;;;;;;;;6008781;23;20019;-82
2022/12/11 00:28:13;;;;;;;14.50;7.68;;;;;;;;;;6033661;23;20031;-81
2022/12/11 00:30:39;;;;;;;;;;;;;;;;;;6008614;23;20022;-80
2022/12/11 00:33:05;;;;;;;14.93;6.57;;;;;;;;;;6033275;23;20294;-80
2022/12/11 00:35:31;;;;;;;17.08;7.65;;;;;;;;;;6008232;23;20014;-81
2022/12/11 00:37:56;;;;;;;16.45;8.10;;;;;;;;;;6033242;23;20082;-81
2022/12/11 00:40:22;;;;;;;16.48;7.22;;;;;;;;;;6008437;23;20087;-81
2022/12/11 00:42:47;;;;;;;15.20;7.53;;;;;;;;;;6010023;23;20042;-80
2022/12/11 00:45:13;;;;;;;16.88;7.38;;;;;;;;;;5997518;23;20007;-82
2022/12/11 00:47:38;;;;;;;15.20;7.25;;;;;;;;;;6033713;23;20018;-81
2022/12/11 00:50:04;;;;;;;17.15;8.50;;;;;;;;;;6008855;23;20336;-82
2022/12/11 00:52:30;;;;;;;14.90;7.22;;;;;;;;;;5983241;23;20044;-81
2022/12/11 00:54:55;;;;;;;17.38;7.93;;;;;;;;;;5981339;23;20083;-80
2022/12/11 00:57:20;;;;;;;14.55;7.30;;;;;;;;;;6028703;23;20015;-82
2022/12/11 00:59:46;;;;;;;16.90;7.68;;;;;;;;;;5993422;23;20083;-81
2022/12/11 01:02:11;;;;;;;15.45;7.38;;;;;;;;;;6027925;23;20347;-81
2022/12/11 01:04:40;;;;;;;15.43;7.60;;;;;;;;;;6009619;23;20047;-82
2022/12/11 01:07:05;;;;;;;17.23;7.60;;;;;;;;;;6013134;23;20416;-80
2022/12/11 01:12:15;;;;;;;15.48;7.75;;;;;;;;;;6029026;23;20083;-80
2022/12/11 01:14:40;;;;;;;15.05;8.20;;;;;;;;;;6009651;23;20023;-80
2022/12/11 01:17:06;;;;;;;15.77;7.45;;;;;;;;;;6032406;23;20020;-81
2022/12/11 01:19:32;;;;;;;14.00;7.65;;;;;;;;;;6009181;23;20019;-81
2022/12/11 01:21:57;;;;;;;18.45;8.38;;;;;;;;;;6012832;23;20007;-82
2022/12/11 01:24:22;;;;;;;15.30;7.85;;;;;;;;;;5981715;23;20415;-82
2022/12/11 01:26:49;;;;;;;20.17;7.72;;;;;;;;;;6021939;23;20022;-81
2022/12/11 01:29:15;;;;;;;14.80;8.05;;;;;;;;;;6008746;23;20019;-81
2022/12/11 01:31:42;;;;;;;15.00;8.05;;;;;;;;;;5992698;23;20024;-81
2022/12/11 01:34:08;;;;;;;16.88;8.23;;;;;;;;;;5982293;23;20028;-82
2022/12/11 01:36:33;;;;;;;16.45;7.88;;;;;;;;;;5995258;23;20127;-81
2022/12/11 01:38:59;;;;;;;16.27;7.63;;;;;;;;;;5992170;23;20414;-81
2022/12/11 01:41:24;;;;;;;14.70;7.40;;;;;;;;;;6008032;23;20095;-81
2022/12/11 01:44:05;;;;;;;16.75;8.52;;;;;;;;;;6010049;23;20011;-81
2022/12/11 01:46:33;;;;;;;15.35;7.50;;;;;;;;;;6008200;23;20448;-81
2022/12/11 01:49:00;;;;;;;;;;;;;;;;;;6033535;23;20022;-81
2022/12/11 01:51:28;;;;;;;16.40;7.05;;;;;;;;;;6008833;23;19949;-81
2022/12/11 01:54:00;;;;;;;14.98;6.75;;;;;;;;;;6032909;23;20717;-81
2022/12/11 01:56:26;;;;;;;16.63;8.18;;;;;;;;;;6009008;23;20039;-81
2022/12/11 01:58:55;;;;;;;15.02;7.68;;;;;;;;;;6009298;23;20021;-82
2022/12/11 02:01:29;;;;;;;14.82;8.02;;;;;;;;;;5996760;23;20008;-83
2022/12/11 02:03:55;;;;;;;17.77;8.20;;;;;;;;;;5970535;23;20453;-82
2022/12/11 02:06:45;;;;;;;17.55;8.15;;;;;;;;;;5992897;23;20016;-82
2022/12/11 02:09:13;;;;;;;15.80;8.00;;;;;;;;;;6009802;23;20437;-81
2022/12/11 02:12:08;;;;;;;17.58;7.88;;;;;;;;;;6008650;23;20475;-81
2022/12/11 02:14:49;;;;;;;20.48;8.05;;;;;;;;;;5974902;24;20024;-81
2022/12/11 02:17:21;;;;;;;17.38;8.30;;;;;;;;;;5978104;24;20017;-81
2022/12/11 02:19:54;;;;;;;16.17;7.47;;;;;;;;;;5942177;23;20015;-82
2022/12/11 02:22:34;;;;;;;16.05;8.35;;;;;;;;;;6000194;23;20072;-81
2022/12/11 02:25:07;;;;;;;15.38;7.50;;;;;;;;;;5929785;24;20020;-80
2022/12/11 02:27:56;;;;;;;17.17;8.35;;;;;;;;;;5955213;24;20453;-82
2022/12/11 02:30:22;;;;;;;19.17;8.05;;;;;;;;;;5956704;23;20019;-81
2022/12/11 02:32:56;;;;;;;18.13;8.73;;;;;;;;;;5959135;23;20019;-80
2022/12/11 02:35:23;;;;;;;15.63;7.78;;;;;;;;;;5963444;23;20013;-82
2022/12/11 02:37:50;;;;;;;;;;;;;;;;;;5954772;24;20083;-81
2022/12/11 02:40:19;;;;;;;17.58;7.60;;;;;;;;;;5948913;23;19911;-81
2022/12/11 02:42:47;;;;;;;14.85;7.85;;;;;;;;;;5976810;23;20016;-81
2022/12/11 02:45:13;;;;;;;17.70;8.07;;;;;;;;;;5946189;23;20088;-81
2022/12/11 02:47:39;;;;;;;16.45;8.57;;;;;;;;;;5980030;23;20023;-80
2022/12/11 02:50:08;;;;;;;16.95;8.13;;;;;;;;;;5932546;24;20015;-80
2022/12/11 02:52:35;;;;;;;15.77;7.88;;;;;;;;;;5980752;23;20016;-81
2022/12/11 02:55:02;;;;;;;16.92;7.97;;;;;;;;;;5981397;23;20012;-80
2022/12/11 02:57:34;;;;;;;14.77;8.23;;;;;;;;;;6003368;23;20020;-81
2022/12/11 02:59:59;;;;;;;19.15;8.50;;;;;;;;;;5981476;23;20016;-81
2022/12/11 03:02:25;;;;;;;15.27;7.88;;;;;;;;;;5956538;23;20052;-80
2022/12/11 03:04:50;;;;;;;15.05;7.32;;;;;;;;;;5971107;23;20040;-81
2022/12/11 03:07:26;;;;;;;14.80;7.32;;;;;;;;;;5951868;23;20042;-82
2022/12/11 03:09:52;;;;;;;14.05;7.20;;;;;;;;;;5980806;23;20419;-81
2022/12/11 03:12:22;;;;;;;15.13;7.60;;;;;;;;;;5986916;23;20031;-81
2022/12/11 03:14:47;;;;;;;19.23;8.43;;;;;;;;;;6032918;23;20031;-81
2022/12/11 03:17:22;;;;;;;17.88;8.85;;;;;;;;;;6032454;23;20011;-80
2022/12/11 03:20:04;;;;;;;13.57;7.53;;;;;;;;;;6009677;23;20015;-81
2022/12/11 03:22:38;;;;;;;15.52;7.55;;;;;;;;;;6004074;23;20038;-81
2022/12/11 03:25:11;;;;;;;17.17;8.40;;;;;;;;;;6005074;23;20020;-81
2022/12/11 03:28:00;;;;;;;16.08;7.80;;;;;;;;;;6008437;23;20027;-80
2022/12/11 03:30:27;;;;;;;14.00;7.35;;;;;;;;;;6032065;23;20056;-83
2022/12/11 03:33:03;;;;;;;16.35;8.27;;;;;;;;;;6009561;23;20015;-81
2022/12/11 03:35:42;;;;;;;15.65;7.88;;;;;;;;;;6032528;23;20019;-81
2022/12/11 03:38:12;;;;;;;16.42;7.82;;;;;;;;;;6010135;23;20364;-82
2022/12/11 03:40:39;;;;;;;15.30;7.80;;;;;;;;;;6029880;23;20345;-79
2022/12/11 03:43:05;;;;;;;17.33;8.63;;;;;;;;;;5983763;23;20027;-79
2022/12/11 03:45:31;;;;;;;13.60;7.45;;;;;;;;;;5985272;23;20018;-80
2022/12/11 03:47:58;;;;;;;19.03;7.80;;;;;;;;;;6034086;23;20022;-80
2022/12/11 03:50:25;;;;;;;19.07;8.60;;;;;;;;;;6010418;23;20019;-80
2022/12/11 03:52:51;;;;;;;15.65;8.38;;;;;;;;;;6011938;23;20251;-81
2022/12/11 03:55:18;;;;;;;14.23;7.13;;;;;;;;;;6010537;23;20011;-80
2022/12/11 03:57:44;;;;;;;16.17;8.05;;;;;;;;;;6034885;23;20357;-79
2022/12/11 04:00:12;;;;;;;15.30;8.27;;;;;;;;;;6033232;23;20083;-79
2022/12/11 04:02:39;;;;;;;13.32;7.43;;;;;;;;;;6011303;23;20046;-80
2022/12/11 04:05:05;;;;;;;16.83;8.35;;;;;;;;;;6034253;23;20028;-80
2022/12/11 04:07:31;;;;;;;15.77;7.88;;;;;;;;;;6033813;23;20022;-80
2022/12/11 04:09:56;;;;;;;17.10;8.63;;;;;;;;;;6034604;23;20011;-81
2022/12/11 04:12:22;;;;;;;15.68;8.25;;;;;;;;;;6009988;23;20314;-81
2022/12/11 04:15:02;;;;;;;16.80;8.13;;;;;;;;;;6011865;23;20022;-80
2022/12/11 04:25:41;;;;;;;17.10;8.20;;;;;;;;;;6033914;23;20026;-80
2022/12/11 04:28:07;;;;;;;15.85;8.00;;;;;;;;;;6034469;23;20023;-79
2022/12/11 04:30:32;;;;;;;17.35;8.50;;;;;;;;;;6008159;23;20015;-81
2022/12/11 04:32:58;;;;;;;15.25;7.28;;;;;;;;;;6007248;23;20016;-80
2022/12/11 04:35:23;;;;;;;17.83;7.88;;;;;;;;;;5964727;23;20020;-81
2022/12/11 04:37:48;;;;;;;13.63;7.28;;;;;;;;;;6009866;23;20037;-80
2022/12/11 04:40:16;;;;;;;15.27;8.30;;;;;;;;;;6010307;23;20390;-80
2022/12/11 04:42:41;;;;;;;16.02;8.18;;;;;;;;;;6011447;23;20452;-80
2022/12/11 04:45:08;;;;;;;15.75;7.28;;;;;;;;;;6007628;23;20031;-81
2022/12/11 04:47:35;;;;;;;17.88;8.48;;;;;;;;;;6008091;23;20047;-81
2022/12/11 04:50:00;;;;;;;16.38;8.77;;;;;;;;;;6034659;23;20344;-81
2022/12/11 04:52:26;;;;;;;17.00;8.48;;;;;;;;;;6009993;23;20044;-81
2022/12/11 04:54:51;;;;;;;18.42;8.05;;;;;;;;;;6010826;23;20022;-80
2022/12/11 04:57:19;;;;;;;16.95;8.00;;;;;;;;;;6014846;23;20015;-80
2022/12/11 04:59:45;;;;;;;14.30;7.75;;;;;;;;;;5983566;23;20015;-80
2022/12/11 05:02:10;;;;;;;15.50;7.78;;;;;;;;;;6004040;23;20042;-80
2022/12/11 05:04:35;;;;;;;14.82;7.55;;;;;;;;;;6010132;23;20015;-80
2022/12/11 05:07:01;;;;;;;16.63;8.20;;;;;;;;;;5989888;23;20016;-79
2022/12/11 05:09:27;;;;;;;15.45;7.88;;;;;;;;;;5981632;23;20024;-80
2022/12/11 05:11:53;;;;;;;17.27;8.30;;;;;;;;;;6000662;23;20050;-80
2022/12/11 05:14:19;;;;;;;17.27;8.02;;;;;;;;;;6011114;23;20019;-80
2022/12/11 05:16:44;;;;;;;16.67;8.02;;;;;;;;;;6009330;23;20011;-79
2022/12/11 05:19:10;;;;;;;16.08;8.50;;;;;;;;;;6010253;23;20042;-82
2022/12/11 05:21:35;;;;;;;17.80;8.13;;;;;;;;;;6017971;23;20087;-82
2022/12/11 05:24:01;;;;;;;17.02;7.90;;;;;;;;;;6005439;23;20402;-81
2022/12/11 05:26:27;;;;;;;17.08;7.90;;;;;;;;;;5994531;23;20019;-81
2022/12/11 05:28:53;;;;;;;17.67;7.88;;;;;;;;;;6034211;23;20015;-81
2022/12/11 05:31:22;;;;;;;17.30;8.90;;;;;;;;;;6023094;23;20011;-81
2022/12/11 05:33:49;;;;;;;17.77;7.65;;;;;;;;;;6033520;23;20020;-81
2022/12/11 05:36:23;;;;;;;17.42;8.07;;;;;;;;;;6009087;23;20016;-80
2022/12/11 05:38:52;;;;;;;14.43;7.82;;;;;;;;;;6017100;23;20018;-80
2022/12/11 05:41:21;;;;;;;14.95;7.53;;;;;;;;;;5993000;23;20018;-80
2022/12/11 05:43:47;;;;;;;16.75;8.18;;;;;;;;;;5982402;23;20102;-80
2022/12/11 05:46:18;;;;;;;17.33;8.00;;;;;;;;;;5979762;23;20019;-80
2022/12/11 05:48:45;;;;;;;17.88;8.10;;;;;;;;;;6010449;23;20019;-80
2022/12/11 05:51:12;;;;;;;16.98;8.13;;;;;;;;;;6000093;23;20015;-80
2022/12/11 05:53:38;;;;;;;14.47;7.43;;;;;;;;;;5981526;23;20011;-81
2022/12/11 05:56:12;;;;;;;16.88;8.10;;;;;;;;;;6000649;23;20267;-81
2022/12/11 05:58:38;;;;;;;15.60;7.43;;;;;;;;;;6009792;23;20030;-82
2022/12/11 06:01:08;;;;;;;16.98;8.35;;;;;;;;;;6032518;23;20020;-83
2022/12/11 06:03:34;;;;;;;16.77;7.53;;;;;;;;;;6009955;23;20031;-81
2022/12/11 06:06:03;;;;;;;16.02;7.75;;;;;;;;;;6002131;23;20012;-81
2022/12/11 06:08:29;;;;;;;13.88;7.63;;;;;;;;;;5982504;23;20031;-80
2022/12/11 06:10:54;;;;;;;14.32;7.22;;;;;;;;;;5990388;23;20011;-81
2022/12/11 06:13:20;;;;;;;15.68;8.23;;;;;;;;;;6010119;23;20456;-81
2022/12/11 06:15:45;;;;;;;15.80;8.10;;;;;;;;;;5990934;23;20015;-81
2022/12/11 06:18:11;;;;;;;18.67;8.77;;;;;;;;;;6004279;23;20023;-81
2022/12/11 06:20:36;;;;;;;17.50;8.32;;;;;;;;;;6008482;23;20382;-81
2022/12/11 06:23:02;;;;;;;17.40;8.48;;;;;;;;;;6033636;23;20011;-80
2022/12/11 06:25:28;;;;;;;20.40;8.77;;;;;;;;;;6009133;23;20011;-82
2022/12/11 06:27:54;;;;;;;19.33;9.02;;;;;;;;;;6034181;23;20015;-80
2022/12/11 06:30:20;;;;;;;17.83;7.63;;;;;;;;;;6009676;23;20011;-80
2022/12/11 06:32:46;;;;;;;16.65;8.02;;;;;;;;;;6010186;23;20344;-81
2022/12/11 06:35:11;;;;;;;16.27;7.82;;;;;;;;;;6009205;23;20019;-80
2022/12/11 06:37:37;;;;;;;17.65;7.68;;;;;;;;;;6006993;23;20424;-81
2022/12/11 06:40:04;;;;;;;16.42;7.88;;;;;;;;;;5990535;23;20019;-80
2022/12/11 06:42:33;;;;;;;16.60;7.80;;;;;;;;;;6009004;23;20043;-81
2022/12/11 06:44:58;;;;;;;16.73;7.55;;;;;;;;;;5985064;23;20035;-80
2022/12/11 06:47:30;;;;;;;15.38;7.07;;;;;;;;;;6000827;23;20023;-81
2022/12/11 06:49:56;;;;;;;13.30;6.70;;;;;;;;;;5981521;23;20095;-81
2022/12/11 06:52:22;;;;;;;14.57;6.47;;;;;;;;;;5981333;23;20713;-82
2022/12/11 06:54:48;;;;;;;14.50;6.60;;;;;;;;;;6029229;23;20100;-81
2022/12/11 06:57:14;;;;;;;12.60;5.95;;;;;;;;;;5980535;23;20019;-82
2022/12/11 06:59:40;;;;;;;14.73;6.28;;;;;;;;;;5979583;23;20016;-82
2022/12/11 07:02:06;;;;;;;11.40;6.10;;;;;;;;;;6026313;23;20012;-82
2022/12/11 07:04:31;;;;;;;12.85;5.93;;;;;;;;;;5980712;23;20063;-83
2022/12/11 07:06:57;;;;;;;15.98;6.85;;;;;;;;;;5979705;23;20027;-82
2022/12/11 07:09:23;;;;;;;12.20;5.93;;;;;;;;;;5992849;23;20052;-82
2022/12/11 07:11:52;;;;;;;13.57;5.95;;;;;;;;;;6003898;23;20457;-81
2022/12/11 07:14:18;;;;;;;10.85;5.90;;;;;;;;;;6008926;23;20031;-81
2022/12/11 07:16:46;;;;;;;11.75;5.50;;;;;;;;;;6009231;23;20015;-83
2022/12/11 07:19:11;;;;;;;;;;;;;;;;;;6011469;23;20067;-82
2022/12/11 07:21:39;;;;;;;13.63;5.93;;;;;;;;;;5996459;23;20316;-82
2022/12/11 07:24:05;;;;;;;9.73;5.50;;;;;;;;;;6010929;23;20086;-81
2022/12/11 07:26:31;;;;;;;11.98;5.97;;;;;;;;;;6033581;23;20050;-82
2022/12/11 07:28:59;;;;;;;12.20;5.65;;;;;;;;;;6034131;23;20018;-83
2022/12/11 07:31:27;;;;;;;14.57;5.60;;;;;;;;;;6009814;23;20007;-82
2022/12/11 07:33:58;;;;;;;11.02;5.80;;;;;;;;;;6010392;23;20045;-80
2022/12/11 07:36:26;;;;;;;12.60;6.10;;;;;;;;;;6009119;23;20020;-80
2022/12/11 07:38:52;;;;;;;11.80;5.75;;;;;;;;;;6010335;23;20016;-80
2022/12/11 07:41:18;;;;;;;14.15;6.18;;;;;;;;;;6009820;23;20019;-81
2022/12/11 07:43:44;;;;;;;13.63;6.40;;;;;;;;;;6010347;23;20086;-81
2022/12/11 07:46:15;;;;;;;14.98;6.40;;;;;;;;;;6032124;23;20023;-80
2022/12/11 07:48:42;;;;;;;14.95;6.15;;;;;;;;;;6010283;23;20020;-81
2022/12/11 07:51:18;;;;;;;14.60;6.82;;;;;;;;;;6033302;23;20022;-83
2022/12/11 07:53:47;;;;;;;15.05;6.78;;;;;;;;;;6034472;23;20456;-83
2022/12/11 07:56:14;;;;;;;12.75;6.20;;;;;;;;;;6010028;23;20152;-81
2022/12/11 07:58:40;;;;;;;12.85;5.80;;;;;;;;;;6009883;23;20456;-82
2022/12/11 08:01:15;;;;;;;13.77;5.88;;;;;;;;;;6008489;23;20019;-83
2022/12/11 08:03:41;;;;;;;19.10;7.30;;;;;;;;;;6010533;23;20374;-81
2022/12/11 08:06:06;;;;;;;11.45;5.97;;;;;;;;;;6009230;23;20029;-81
2022/12/11 08:08:32;;;;;;;12.50;6.30;;;;;;;;;;6034672;23;20039;-81
2022/12/11 08:11:09;;;;;;;14.05;6.38;;;;;;;;;;6033383;23;20019;-81
2022/12/11 08:13:35;;;;;;;14.88;6.18;;;;;;;;;;6010946;23;20032;-81
2022/12/11 08:16:05;;;;;;;15.15;7.00;;;;;;;;;;6009057;23;20448;-81
2022/12/11 08:18:32;;;;;;;14.73;6.15;;;;;;;;;;6010448;23;20037;-81
2022/12/11 08:20:57;;;;;;;14.67;7.23;;;;;;;;;;6032431;23;20440;-82
2022/12/11 08:23:23;;;;;;;10.45;5.55;;;;;;;;;;6009753;23;20267;-82
2022/12/11 08:25:48;;;;;;;12.23;6.10;;;;;;;;;;6009986;23;20443;-81
2022/12/11 08:28:14;;;;;;;10.70;5.55;;;;;;;;;;6008952;23;20019;-81
2022/12/11 08:30:39;;;;;;;15.80;6.47;;;;;;;;;;6009028;23;20015;-82
2022/12/11 08:33:05;;;;;;;12.45;6.18;;;;;;;;;;6010133;23;20023;-82
2022/12/11 08:35:31;;;;;;;13.63;6.53;;;;;;;;;;6009154;23;20022;-78
2022/12/11 08:37:57;;;;;;;13.77;6.20;;;;;;;;;;6009635;23;20046;-82
2022/12/11 08:40:22;;;;;;;12.30;5.63;;;;;;;;;;6032191;23;20019;-83
2022/12/11 08:46:56;;;;;;;;;;;;;;;;;;;;;
2022/12/11 08:49:27;;;;;;;;;;;;;;;;;;6005569;23;20650;-86
2022/12/11 08:51:57;;;;;;;11.95;5.28;;;;;;;;;;5942638;23;19921;-87
2022/12/11 08:54:38;;;;;;;13.95;6.05;;;;;;;;;;5957664;23;20151;-87
2022/12/11 08:57:11;;;;;;;12.05;5.57;;;;;;;;;;5975305;23;20018;-87
2022/12/11 08:59:58;;;;;;;12.88;5.57;;;;;;;;;;5968087;23;20107;-87
2022/12/11 09:02:47;;;;;;;11.73;5.47;;;;;;;;;;5965197;23;20021;-87
2022/12/11 09:06:09;;;;;;;;;;;;;;;;;;;;;
2022/12/11 09:15:56;;;;;;;12.50;5.85;;;;;;;;;;5927322;23;20031;-86
2022/12/11 09:18:22;;;;;;;12.02;5.80;;;;;;;;;;5952352;23;20448;-87
2022/12/11 09:21:31;;;;;;;13.20;5.68;;;;;;;;;;5987459;23;20047;-85
2022/12/11 09:24:02;;;;;;;15.52;5.90;;;;;;;;;;5939138;23;20491;-88
2022/12/11 09:29:51;;;;;;;17.98;6.35;;;;;;;;;;6014403;23;20022;-88
2022/12/11 09:32:54;;;;;;;9.60;5.40;;;;;;;;;;5923933;23;20023;-89
2022/12/11 09:36:02;;;;;;;;;;;;;;;;;;;;;
2022/12/11 09:39:56;;;;;;;;;;;;;;;;;;;;;
2022/12/11 09:43:19;;;;;;;12.98;5.63;;;;;;;;;;5868276;24;20021;-89
2022/12/11 09:49:38;;;;;;;12.80;5.72;;;;;;;;;;5788659;24;20022;-87
2022/12/11 09:52:35;;;;;;;12.52;5.75;;;;;;;;;;5818607;24;20400;-87
2022/12/11 09:55:19;;;;;;;;;;;;;;;;;;5885850;24;20028;-89
2022/12/11 09:57:48;;;;;;;10.20;5.05;;;;;;;;;;5878550;24;19919;-87
2022/12/11 10:00:33;;;;;;;11.18;5.13;;;;;;;;;;5889196;24;20017;-89
2022/12/11 10:03:11;;;;;;;11.43;5.38;;;;;;;;;;5900743;24;20017;-88
2022/12/11 10:06:05;;;;;;;11.27;5.95;;;;;;;;;;5901688;24;20021;-89
2022/12/11 10:08:41;;;;;;;11.00;5.60;;;;;;;;;;5914409;24;20500;-78
2022/12/11 10:11:35;;;;;;;12.18;5.45;;;;;;;;;;5917162;24;20597;-79
2022/12/11 10:14:46;;;;;;;10.80;5.30;;;;;;;;;;5896431;24;20463;-80
2022/12/11 10:17:18;;;;;;;9.63;5.10;;;;;;;;;;5876094;24;20095;-78
2022/12/11 10:19:44;;;;;;;12.27;6.10;;;;;;;;;;5927402;23;20036;-80
2022/12/11 10:22:25;;;;;;;11.23;5.65;;;;;;;;;;6012322;23;20081;-80
2022/12/11 10:25:30;;;;;;;12.98;5.80;;;;;;;;;;6013106;23;20019;-81
2022/12/11 10:27:56;;;;;;;12.13;6.18;;;;;;;;;;5996101;23;20015;-80
2022/12/11 10:30:28;;;;;;;11.20;5.75;;;;;;;;;;6013063;23;20021;-80
2022/12/11 10:33:10;;;;;;;11.70;5.70;;;;;;;;;;6011291;23;20015;-80
2022/12/11 10:35:42;;;;;;;12.85;5.80;;;;;;;;;;6059610;23;20024;-80
2022/12/11 10:38:12;;;;;;;11.40;5.43;;;;;;;;;;5998383;23;20021;-81
2022/12/11 10:40:42;;;;;;;12.90;5.75;;;;;;;;;;6012681;23;20014;-80
2022/12/11 10:43:09;;;;;;;11.65;5.45;;;;;;;;;;6011539;23;20015;-81
2022/12/11 10:45:35;;;;;;;13.13;5.90;;;;;;;;;;6010475;23;20035;-82
2022/12/11 10:48:09;;;;;;;12.80;5.68;;;;;;;;;;6010864;23;20389;-80
2022/12/11 10:50:35;;;;;;;14.25;5.53;;;;;;;;;;6008806;23;20104;-81
2022/12/11 10:53:01;;;;;;;13.80;5.60;;;;;;;;;;6011528;23;20422;-80
2022/12/11 10:55:30;;;;;;;11.68;5.40;;;;;;;;;;6032893;23;20420;-81
2022/12/11 10:58:05;;;;;;;12.52;5.68;;;;;;;;;;6009427;23;20396;-81
2022/12/11 11:00:40;;;;;;;12.15;5.95;;;;;;;;;;6010771;23;20007;-81
2022/12/11 11:03:19;;;;;;;13.82;6.13;;;;;;;;;;6010760;23;20098;-82
2022/12/11 11:05:45;;;;;;;11.98;6.22;;;;;;;;;;6033061;23;20100;-81
2022/12/11 11:08:19;;;;;;;10.88;5.63;;;;;;;;;;6033508;23;20018;-82
2022/12/11 11:10:54;;;;;;;13.85;5.90;;;;;;;;;;5994832;23;20470;-82
2022/12/11 11:13:22;;;;;;;13.45;6.53;;;;;;;;;;6009764;23;20026;-82
2022/12/11 11:15:48;;;;;;;12.00;6.20;;;;;;;;;;6008857;23;20027;-83
2022/12/11 11:18:24;;;;;;;12.00;5.90;;;;;;;;;;6009579;23;20022;-82
2022/12/11 11:20:49;;;;;;;13.80;6.25;;;;;;;;;;6009498;23;20105;-81
2022/12/11 11:23:17;;;;;;;11.95;5.80;;;;;;;;;;6011162;23;20364;-81
2022/12/11 11:26:01;;;;;;;;;;;;;;;;;;6009947;23;20027;-80
2022/12/11 11:28:39;;;;;;;13.52;6.40;;;;;;;;;;6033015;23;19913;-81
2022/12/11 11:31:07;;;;;;;14.30;6.47;;;;;;;;;;6032884;23;20106;-82
2022/12/11 11:33:34;;;;;;;11.77;5.50;;;;;;;;;;6008505;23;20143;-81
2022/12/11 11:36:05;;;;;;;13.80;6.20;;;;;;;;;;6008622;23;20015;-81
2022/12/11 11:38:32;;;;;;;11.68;5.93;;;;;;;;;;6033400;23;20018;-81
2022/12/11 11:41:20;;;;;;;15.02;7.05;;;;;;;;;;6056203;23;20085;-81
2022/12/11 11:44:13;;;;;;;11.20;5.65;;;;;;;;;;6009584;23;20631;-81
2022/12/11 11:47:13;;;;;;;12.98;6.45;;;;;;;;;;6027158;23;20027;-81
2022/12/11 11:49:58;;;;;;;12.50;5.70;;;;;;;;;;6009340;23;20021;-82
2022/12/11 11:52:31;;;;;;;12.35;6.32;;;;;;;;;;6032508;23;20388;-81
2022/12/11 11:55:08;;;;;;;12.90;5.88;;;;;;;;;;6032808;23;20015;-81
2022/12/11 11:57:44;;;;;;;11.82;5.82;;;;;;;;;;6033564;23;20007;-81
2022/12/11 12:00:20;;;;;;;13.93;6.10;;;;;;;;;;6033477;23;20025;-81
2022/12/11 12:02:49;;;;;;;13.18;6.60;;;;;;;;;;6009391;23;20604;-81
2022/12/11 12:05:16;;;;;;;13.20;6.22;;;;;;;;;;6011042;23;20055;-81
2022/12/11 12:08:05;;;;;;;12.73;6.32;;;;;;;;;;6011978;23;21391;-82
2022/12/11 12:10:37;;;;;;;12.45;6.40;;;;;;;;;;6058446;23;20360;-80
2022/12/11 12:13:06;;;;;;;11.77;5.95;;;;;;;;;;6034944;23;20034;-82
2022/12/11 12:16:11;;;;;;;11.88;5.63;;;;;;;;;;6033962;23;20023;-81
2022/12/11 12:18:42;;;;;;;11.90;5.63;;;;;;;;;;6021473;23;20026;-82
2022/12/11 12:21:07;;;;;;;13.48;6.00;;;;;;;;;;6059921;23;20025;-83
2022/12/11 12:24:22;;;;;;;13.27;5.82;;;;;;;;;;6060665;23;20018;-79
2022/12/11 12:27:21;;;;;;;12.05;5.47;;;;;;;;;;6010117;23;20015;-82
2022/12/11 12:30:03;;;;;;;11.75;5.53;;;;;;;;;;5950329;23;20344;-80
2022/12/11 12:32:40;;;;;;;12.05;5.57;;;;;;;;;;6009224;23;20086;-82
2022/12/11 12:35:18;;;;;;;13.20;5.82;;;;;;;;;;6060294;23;20046;-80
2022/12/11 12:38:02;;;;;;;12.70;6.57;;;;;;;;;;6032844;23;20363;-81
2022/12/11 12:41:12;;;;;;;11.68;5.05;;;;;;;;;;6044390;23;20093;-79
2022/12/11 12:43:46;;;;;;;15.30;6.53;;;;;;;;;;6034540;23;20514;-80
2022/12/11 12:46:11;;;;;;;12.52;5.88;;;;;;;;;;5999017;23;20069;-80
2022/12/11 12:48:37;;;;;;;11.80;5.70;;;;;;;;;;6034957;23;20027;-80
2022/12/11 12:51:05;;;;;;;11.23;5.18;;;;;;;;;;6009507;23;20015;-81
2022/12/11 12:53:33;;;;;;;12.40;5.72;;;;;;;;;;6011916;23;20467;-80
2022/12/11 12:56:00;;;;;;;13.55;6.30;;;;;;;;;;6010777;23;20022;-79
2022/12/11 12:58:49;;;;;;;11.82;5.95;;;;;;;;;;6010082;23;20495;-81
2022/12/11 13:01:20;;;;;;;10.93;5.35;;;;;;;;;;6035007;23;20021;-81
2022/12/11 13:03:48;;;;;;;9.48;4.57;;;;;;;;;;6011327;23;20701;-80
2022/12/11 13:06:14;;;;;;;12.48;5.95;;;;;;;;;;6034166;23;20440;-80
2022/12/11 13:08:49;;;;;;;12.23;5.72;;;;;;;;;;6010025;23;20102;-80
2022/12/11 13:11:19;;;;;;;11.90;6.70;;;;;;;;;;6010963;23;20467;-82
2022/12/11 13:13:49;;;;;;;13.65;6.53;;;;;;;;;;6006202;23;20097;-81
2022/12/11 13:16:14;;;;;;;10.38;5.25;;;;;;;;;;5982357;23;20066;-80
2022/12/11 13:18:42;;;;;;;14.50;6.00;;;;;;;;;;6005473;23;20102;-81
2022/12/11 13:21:22;;;;;;;;;;;;;;;;;;6005826;23;20027;-82
2022/12/11 13:27:36;;;;;;;11.43;5.63;;;;;;;;;;6000587;23;20445;-89
2022/12/11 13:37:16;;;;;;;15.38;6.32;;;;;;;;;;5982883;23;20122;-89
2022/12/11 13:39:58;;;;;;;14.27;6.63;;;;;;;;;;5939576;23;20023;-89
2022/12/11 13:42:28;;;;;;;11.80;5.97;;;;;;;;;;5949779;23;20102;-92
2022/12/11 13:44:54;;;;;;;13.10;6.45;;;;;;;;;;5981788;23;20059;-92
2022/12/11 13:47:20;;;;;;;14.10;6.40;;;;;;;;;;6009612;23;20022;-87
2022/12/11 13:53:22;;;;;;;12.88;5.28;;;;;;;;;;5867031;24;20052;-91
2022/12/11 13:55:59;;;;;;;13.45;5.78;;;;;;;;;;5816715;24;20101;-91
2022/12/11 13:58:27;;;;;;;12.93;6.03;;;;;;;;;;5881324;24;20017;-93
2022/12/11 14:01:12;;;;;;;11.77;5.78;;;;;;;;;;5904087;24;20024;-91
2022/12/11 14:03:46;;;;;;;12.05;5.72;;;;;;;;;;5893444;24;20059;-92
2022/12/11 14:06:18;;;;;;;13.00;6.18;;;;;;;;;;5869660;24;20114;-92
2022/12/11 14:08:45;;;;;;;15.35;6.22;;;;;;;;;;5904667;24;20026;-92
2022/12/11 14:14:39;;;;;;;12.45;5.97;;;;;;;;;;5862259;24;20036;-92
2022/12/11 14:17:43;;;;;;;;;;;;;;;;;;;;;
2022/12/11 14:20:41;;;;;;;15.38;6.40;;;;;;;;;;5889382;24;20678;-93
2022/12/11 14:23:29;;;;;;;12.45;6.70;;;;;;;;;;5867658;24;20095;-92
2022/12/11 14:26:10;;;;;;;14.73;6.15;;;;;;;;;;5857704;24;20024;-92
2022/12/11 14:31:42;;;;;;;12.40;5.78;;;;;;;;;;6007050;23;20087;-92
2022/12/11 14:38:11;;;;;;;;;;;;;;;;;;;;;
2022/12/11 14:40:57;;;;;;;12.48;6.03;;;;;;;;;;5890792;24;20087;-93
2022/12/11 14:43:33;;;;;;;13.98;5.88;;;;;;;;;;5974734;23;20074;-92
2022/12/11 14:46:02;;;;;;;13.30;6.05;;;;;;;;;;5992753;23;20475;-84
2022/12/11 14:48:35;;;;;;;13.25;6.35;;;;;;;;;;5984248;23;20094;-93
2022/12/11 14:51:04;;;;;;;14.20;6.18;;;;;;;;;;6028242;23;20026;-91
2022/12/11 14:53:41;;;;;;;11.63;5.72;;;;;;;;;;6017141;23;20103;-94
2022/12/11 14:56:12;;;;;;;12.98;6.35;;;;;;;;;;5996126;23;20029;-95
2022/12/11 14:59:39;;;;;;;13.98;6.18;;;;;;;;;;5923231;23;20024;-95
2022/12/11 15:06:25;;;;;;;13.23;5.95;;;;;;;;;;5904030;23;20027;-96
2022/12/11 15:12:20;;;;;;;13.18;6.30;;;;;;;;;;5903772;23;20023;-96
2022/12/11 15:15:27;;;;;;;13.57;6.70;;;;;;;;;;6024566;23;20030;-95
2022/12/11 15:17:53;;;;;;;15.63;6.63;;;;;;;;;;5855342;24;20025;-94
2022/12/11 15:20:27;;;;;;;13.13;6.03;;;;;;;;;;5946965;23;20458;-92
2022/12/11 15:23:19;;;;;;;13.95;5.65;;;;;;;;;;5954350;23;20029;-92
2022/12/11 15:26:18;;;;;;;;;;;;;;;;;;;;;
2022/12/11 15:29:26;;;;;;;11.52;5.80;;;;;;;;;;6003603;23;21115;-92
2022/12/11 15:32:13;;;;;;;13.82;6.45;;;;;;;;;;5717273;24;20045;-94
2022/12/11 15:41:46;;;;;;;14.05;6.82;;;;;;;;;;5757102;24;20021;-81
2022/12/11 15:47:33;;;;;;;14.55;6.40;;;;;;;;;;5718025;24;20068;-90
2022/12/11 15:50:51;;;;;;;;;;;;;;;;;;;;;
2022/12/11 16:18:15;;;;;;;14.52;6.82;;;;;;;;;;5664277;25;20064;-95
2022/12/11 16:46:25;;;;;;;14.85;6.88;;;;;;;;;;5267149;25;4893664;-94
2022/12/11 16:50:02;;;;;;;;;;;;;;;;;;;;;
2022/12/11 17:00:29;;;;;;;;;;;;;;;;;;;;;
2022/12/11 17:03:27;;;;;;;15.55;7.03;;;;;;;;;;5674159;25;21492;-93
2022/12/11 17:10:04;;;;;;;;;;;;;;;;;;;;;
2022/12/11 17:27:46;;;;;;;;;;;;;;;;;;;;;
2022/12/11 17:31:36;;;;;;;16.25;6.90;;;;;;;;;;5526772;25;20625;-94
2022/12/11 17:37:53;;;;;;;14.38;7.10;;;;;;;;;;5583340;25;249897;-95
2022/12/11 17:41:29;;;;;;;;;;;;;;;;;;;;;
2022/12/11 17:44:35;;;;;;;16.98;7.30;;;;;;;;;;5658175;25;20362;-93
2022/12/11 17:47:41;;;;;;;16.67;7.23;;;;;;;;;;5590731;25;20523;-95
2022/12/11 17:50:42;;;;;;;13.70;6.80;;;;;;;;;;5582419;25;20130;-93
2022/12/11 17:54:12;;;;;;;16.75;7.18;;;;;;;;;;5595971;25;20022;-94
2022/12/11 17:57:07;;;;;;;18.52;7.53;;;;;;;;;;5578864;25;20022;-93